Time;durP1;ratioP1;P1;durP2;ratioP2;P2;SDS_P1;SDS_P2;PMS_P1;PMS_P2;Temp;Humidity;BMP_temperature;BMP_pressure;BME280_temperature;BME280_humidity;BME280_pressure;Samples;Min_cycle;Max_cycle;Signal;HPM_P1;HPM_P2
2021/03/02 00:00:27;;;;;;;7.87;4.40;;;;;;;3.53;70.14;103028.70;1731156;82;25619;-56
2021/03/02 00:02:57;;;;;;;5.22;3.30;;;;;;;3.55;70.22;103026.42;1728016;82;25534;-57
2021/03/02 00:05:29;;;;;;;7.55;4.10;;;;;;;3.61;70.38;103021.42;1748288;82;27541;-56
2021/03/02 00:08:00;;;;;;;5.15;3.30;;;;;;;3.67;70.56;103022.59;1746180;82;26096;-56
2021/03/02 00:10:29;;;;;;;5.25;3.90;;;;;;;3.71;70.57;103021.62;1739708;82;25680;-56
2021/03/02 00:12:58;;;;;;;4.60;3.77;;;;;;;3.73;70.64;103013.59;1729931;82;26441;-56
2021/03/02 00:15:26;;;;;;;5.87;3.40;;;;;;;3.77;70.75;103013.92;1734861;82;25727;-56
2021/03/02 00:17:59;;;;;;;5.30;3.47;;;;;;;3.84;70.76;103005.34;1735478;82;28431;-56
2021/03/02 00:20:29;;;;;;;4.58;3.47;;;;;;;3.90;70.63;103005.18;1733386;82;26124;-56
2021/03/02 00:23:12;;;;;;;4.70;3.40;;;;;;;3.94;70.61;103004.67;1726106;82;25720;-56
2021/03/02 00:25:44;;;;;;;6.72;4.12;;;;;;;3.98;70.46;103001.91;1705643;83;25703;-56
2021/03/02 00:28:13;;;;;;;5.28;3.40;;;;;;;4.02;70.29;102993.38;1709731;82;26260;-57
2021/03/02 00:30:43;;;;;;;6.75;3.75;;;;;;;4.01;69.98;102991.63;1707275;82;27445;-56
2021/03/02 00:33:13;;;;;;;13.35;4.70;;;;;;;4.02;70.03;102992.91;1735340;81;25478;-55
2021/03/02 00:35:42;;;;;;;7.78;4.20;;;;;;;3.99;69.50;102985.45;1735435;82;25810;-56
2021/03/02 00:38:11;;;;;;;7.80;4.65;;;;;;;3.91;69.17;102982.97;1732618;82;25748;-56
2021/03/02 00:40:40;;;;;;;6.65;3.98;;;;;;;3.81;69.19;102980.14;1706345;82;25867;-55
2021/03/02 00:43:09;;;;;;;5.83;4.17;;;;;;;3.77;69.30;102975.32;1730583;82;26892;-54
2021/03/02 00:45:37;;;;;;;5.28;3.62;;;;;;;3.72;69.36;102972.77;1735407;82;25641;-55
2021/03/02 00:48:09;;;;;;;9.00;5.22;;;;;;;3.68;69.51;102967.55;1733428;82;25681;-55
2021/03/02 00:50:38;;;;;;;9.18;5.47;;;;;;;3.63;69.33;102966.34;1706085;84;25718;-56
2021/03/02 00:53:07;;;;;;;10.00;5.12;;;;;;;3.57;69.28;102967.39;1708092;82;25449;-56
2021/03/02 00:55:36;;;;;;;12.25;5.67;;;;;;;3.53;69.43;102964.83;1731281;82;27543;-56
2021/03/02 00:58:05;;;;;;;8.95;4.95;;;;;;;3.51;69.67;102960.86;1734969;82;25483;-56
2021/03/02 01:00:35;;;;;;;6.50;4.28;;;;;;;3.48;69.56;102960.05;1708113;82;25653;-56
2021/03/02 01:03:06;;;;;;;8.13;4.50;;;;;;;3.43;69.87;102957.06;1707890;82;25622;-56
2021/03/02 01:05:37;;;;;;;8.20;5.30;;;;;;;3.41;69.78;102952.66;1708164;82;25647;-56
2021/03/02 01:08:06;;;;;;;9.35;5.22;;;;;;;3.42;70.13;102954.41;1708166;82;27618;-57
2021/03/02 01:10:36;;;;;;;7.35;4.97;;;;;;;3.44;70.29;102944.19;1735351;82;25652;-57
2021/03/02 01:13:07;;;;;;;6.30;4.28;;;;;;;3.45;70.41;102941.05;1734015;82;25511;-56
2021/03/02 01:15:35;;;;;;;6.20;4.50;;;;;;;3.47;70.45;102942.34;1707898;82;25642;-56
2021/03/02 01:18:05;;;;;;;5.97;4.05;;;;;;;3.51;70.75;102936.05;1706223;82;25631;-55
2021/03/02 01:20:34;;;;;;;6.87;4.35;;;;;;;3.49;70.94;102928.55;1706217;82;27526;-56
2021/03/02 01:23:03;;;;;;;7.40;4.25;;;;;;;3.54;70.94;102932.84;1713915;82;25633;-56
2021/03/02 01:25:31;;;;;;;6.35;4.00;;;;;;;3.58;71.02;102925.66;1722675;82;25660;-57
2021/03/02 01:27:59;;;;;;;8.53;4.22;;;;;;;3.64;71.16;102924.64;1708469;82;25748;-56
2021/03/02 01:30:28;;;;;;;6.42;3.70;;;;;;;3.74;71.42;102915.05;1706974;82;26139;-56
2021/03/02 01:32:56;;;;;;;7.58;4.30;;;;;;;3.86;71.61;102909.86;1706057;84;27543;-56
2021/03/02 01:35:25;;;;;;;6.55;5.05;;;;;;;3.96;71.56;102915.84;1715038;82;25686;-56
2021/03/02 01:37:54;;;;;;;5.35;3.65;;;;;;;3.97;71.30;102912.26;1739241;80;25435;-56
2021/03/02 01:40:24;;;;;;;7.90;4.20;;;;;;;4.01;71.16;102913.91;1726146;82;25730;-56
2021/03/02 01:42:52;;;;;;;5.70;4.35;;;;;;;4.02;71.04;102914.33;1734967;81;25665;-56
2021/03/02 01:45:21;;;;;;;7.97;4.60;;;;;;;4.01;70.71;102915.24;1732760;81;27584;-56
2021/03/02 01:47:51;;;;;;;7.65;4.10;;;;;;;3.99;70.50;102914.87;1718862;82;25703;-56
2021/03/02 01:50:24;;;;;;;6.17;4.08;;;;;;;4.01;70.54;102910.39;1766714;79;25762;-56
2021/03/02 01:52:52;;;;;;;9.53;4.20;;;;;;;3.99;70.34;102910.41;1762470;80;25749;-56
2021/03/02 01:55:22;;;;;;;9.88;4.95;;;;;;;3.95;70.04;102907.86;1762435;81;25782;-56
2021/03/02 01:57:50;;;;;;;8.40;4.60;;;;;;;3.89;69.90;102909.79;1775260;79;27577;-55
2021/03/02 02:00:32;;;;;;;9.20;5.12;;;;;;;3.87;69.88;102908.95;1793417;79;25581;-56
2021/03/02 02:03:10;;;;;;;6.37;4.00;;;;;;;3.85;69.99;102915.23;1793832;79;25600;-56
2021/03/02 02:05:43;;;;;;;8.25;4.47;;;;;;;3.82;69.84;102905.98;1772110;79;26317;-56
2021/03/02 02:08:15;;;;;;;10.03;5.00;;;;;;;3.78;69.75;102905.66;1782379;79;25790;-57
2021/03/02 02:10:52;;;;;;;7.53;4.42;;;;;;;3.72;69.70;102906.69;1793659;79;28399;-57
2021/03/02 02:13:29;;;;;;;9.00;4.10;;;;;;;3.66;69.75;102911.70;1793711;79;25739;-57
2021/03/02 02:16:04;;;;;;;6.40;3.72;;;;;;;3.60;69.91;102909.20;1793821;80;25477;-57
2021/03/02 02:18:36;;;;;;;8.20;4.87;;;;;;;3.55;69.78;102910.65;1776499;80;25655;-56
2021/03/02 02:21:16;;;;;;;5.62;4.30;;;;;;;3.51;69.99;102913.42;1725792;83;26062;-57
2021/03/02 02:24:24;;;;;;;6.37;4.42;;;;;;;3.45;70.17;102917.97;1708040;82;26829;-56
2021/03/02 02:26:59;;;;;;;6.72;5.30;;;;;;;3.40;70.43;102908.37;1687314;83;25695;-57
2021/03/02 02:29:36;;;;;;;12.85;5.35;;;;;;;3.39;70.56;102902.62;1714298;82;25636;-57
2021/03/02 02:32:07;;;;;;;8.70;4.37;;;;;;;3.40;70.80;102902.58;1729606;82;26014;-57
2021/03/02 02:34:39;;;;;;;8.53;5.00;;;;;;;3.41;71.29;102904.77;1789103;79;25698;-57
2021/03/02 02:37:10;;;;;;;7.22;4.33;;;;;;;3.44;71.16;102900.72;1762825;79;27523;-57
2021/03/02 02:39:40;;;;;;;7.05;4.17;;;;;;;3.48;71.39;102893.53;1782001;78;25748;-56
2021/03/02 02:42:09;;;;;;;7.58;3.92;;;;;;;3.51;71.56;102895.66;1725889;83;25717;-56
2021/03/02 02:44:39;;;;;;;8.40;4.80;;;;;;;3.59;71.88;102895.48;1705636;84;25676;-58
2021/03/02 02:47:08;;;;;;;6.50;4.22;;;;;;;3.63;71.74;102890.95;1791673;78;25642;-58
2021/03/02 02:49:38;;;;;;;5.75;4.22;;;;;;;3.67;71.85;102897.48;1765301;78;28435;-57
2021/03/02 02:52:06;;;;;;;7.33;4.80;;;;;;;3.71;71.64;102903.16;1762376;81;25712;-56
2021/03/02 02:54:36;;;;;;;7.37;3.95;;;;;;;3.79;71.79;102892.77;1762474;81;25692;-57
2021/03/02 02:57:09;;;;;;;5.50;3.80;;;;;;;3.87;71.85;102892.97;1762703;79;25680;-57
2021/03/02 02:59:40;;;;;;;11.35;4.65;;;;;;;3.94;71.69;102889.70;1793849;79;25799;-57
2021/03/02 03:02:24;;;;;;;9.18;5.80;;;;;;;4.00;71.26;102894.84;1766040;79;28428;-57
2021/03/02 03:04:58;;;;;;;9.25;5.78;;;;;;;4.02;70.81;102885.51;1762174;81;25906;-57
2021/03/02 03:07:34;;;;;;;10.43;5.22;;;;;;;4.04;70.77;102884.98;1773526;79;25814;-57
2021/03/02 03:10:09;;;;;;;7.30;4.55;;;;;;;4.05;70.65;102890.29;1761511;79;25622;-56
2021/03/02 03:12:47;;;;;;;7.28;4.30;;;;;;;4.04;70.32;102894.30;1749597;80;25679;-57
2021/03/02 03:15:19;;;;;;;7.35;4.15;;;;;;;3.97;70.20;102884.30;1773647;80;27530;-56
2021/03/02 03:17:53;;;;;;;6.37;4.42;;;;;;;3.91;70.15;102884.00;1779181;79;26054;-57
2021/03/02 03:20:26;;;;;;;9.78;5.80;;;;;;;3.85;70.23;102883.28;1805254;79;25649;-57
2021/03/02 03:22:56;;;;;;;11.88;6.75;;;;;;;3.77;70.04;102888.80;1803235;79;25741;-56
2021/03/02 03:25:28;;;;;;;9.27;5.93;;;;;;;3.62;70.14;102886.53;1794961;79;25680;-56
2021/03/02 03:28:04;;;;;;;15.60;6.60;;;;;;;3.49;70.24;102889.52;1778745;79;27698;-57
2021/03/02 03:30:34;;;;;;;10.65;6.35;;;;;;;3.38;70.55;102881.78;1798088;79;25941;-57
2021/03/02 03:33:07;;;;;;;8.83;5.37;;;;;;;3.35;70.66;102882.31;1786342;79;25608;-56
2021/03/02 03:35:38;;;;;;;11.25;6.22;;;;;;;3.34;70.89;102885.44;1805092;79;25682;-57
2021/03/02 03:38:06;;;;;;;12.13;6.22;;;;;;;3.29;71.11;102876.24;1798053;79;25749;-56
2021/03/02 03:40:35;;;;;;;9.63;6.45;;;;;;;3.32;71.05;102879.28;1773629;80;27534;-56
2021/03/02 03:43:09;;;;;;;9.25;6.05;;;;;;;3.36;71.16;102881.41;1775700;79;25631;-57
2021/03/02 03:45:37;;;;;;;11.80;6.35;;;;;;;3.39;71.36;102880.87;1773632;80;25462;-57
2021/03/02 03:48:08;;;;;;;10.18;6.83;;;;;;;3.40;71.53;102880.44;1777861;79;25839;-56
2021/03/02 03:50:37;;;;;;;13.93;6.90;;;;;;;3.38;71.77;102881.78;1776037;79;26393;-57
2021/03/02 03:53:08;;;;;;;10.38;7.17;;;;;;;3.35;71.52;102879.66;1773905;79;27518;-57
2021/03/02 03:55:40;;;;;;;13.15;6.67;;;;;;;3.35;71.67;102879.21;1775714;79;25698;-57
2021/03/02 03:58:14;;;;;;;17.05;7.12;;;;;;;3.44;72.25;102884.31;1780981;79;25661;-56
2021/03/02 04:00:43;;;;;;;10.45;5.90;;;;;;;3.51;71.96;102878.83;1805585;79;25666;-56
2021/03/02 04:03:13;;;;;;;9.55;4.65;;;;;;;3.59;72.14;102879.51;1805408;79;26328;-57
2021/03/02 04:05:42;;;;;;;11.70;7.22;;;;;;;3.60;71.91;102884.78;1784448;79;27521;-56
2021/03/02 04:08:11;;;;;;;12.37;7.03;;;;;;;3.65;71.97;102882.47;1776347;79;25738;-57
2021/03/02 04:10:41;;;;;;;8.40;5.55;;;;;;;3.73;72.08;102873.83;1773579;80;25684;-56
2021/03/02 04:13:14;;;;;;;12.98;6.70;;;;;;;3.80;71.85;102871.89;1764539;81;25559;-59
2021/03/02 04:15:47;;;;;;;8.95;5.53;;;;;;;3.81;71.66;102876.30;1765128;81;25699;-57
2021/03/02 04:18:18;;;;;;;11.55;5.70;;;;;;;3.87;71.98;102874.33;1740534;82;27461;-57
2021/03/02 04:20:49;;;;;;;9.85;5.37;;;;;;;3.93;71.74;102867.11;1718562;83;25702;-56
2021/03/02 04:23:17;;;;;;;10.98;4.95;;;;;;;3.93;71.45;102862.64;1718603;83;25712;-57
2021/03/02 04:25:45;;;;;;;10.88;5.35;;;;;;;3.96;71.49;102867.90;1727048;82;25649;-57
2021/03/02 04:28:13;;;;;;;10.35;5.87;;;;;;;3.97;71.20;102859.00;1743361;82;26079;-57
2021/03/02 04:30:41;;;;;;;12.90;7.03;;;;;;;3.97;71.08;102861.66;1718761;82;28441;-57
2021/03/02 04:33:10;;;;;;;12.25;6.47;;;;;;;3.96;70.67;102858.58;1718571;83;25710;-57
2021/03/02 04:35:39;;;;;;;10.48;5.78;;;;;;;3.95;70.68;102859.92;1718576;83;25451;-57
2021/03/02 04:38:09;;;;;;;10.40;5.80;;;;;;;3.95;70.84;102859.48;1720101;82;25761;-57
2021/03/02 04:40:37;;;;;;;12.82;6.03;;;;;;;3.93;70.70;102851.99;1718646;83;25660;-56
2021/03/02 04:43:09;;;;;;;8.18;5.42;;;;;;;3.90;70.58;102853.39;1718721;82;27511;-57
2021/03/02 04:45:39;;;;;;;8.90;5.87;;;;;;;3.84;70.57;102853.57;1715648;83;25733;-56
2021/03/02 04:48:09;;;;;;;8.35;5.60;;;;;;;3.79;70.46;102845.70;1736356;82;25740;-57
2021/03/02 04:50:38;;;;;;;12.05;6.75;;;;;;;3.72;70.49;102848.12;1718592;83;26524;-56
2021/03/02 04:53:07;;;;;;;15.23;8.95;;;;;;;3.64;70.57;102840.80;1718674;83;25520;-56
2021/03/02 04:55:36;;;;;;;12.25;6.05;;;;;;;3.54;70.47;102838.38;1740807;82;28427;-57
2021/03/02 04:58:04;;;;;;;21.05;8.78;;;;;;;3.49;70.54;102835.41;1741833;82;25857;-56
2021/03/02 05:00:32;;;;;;;13.20;7.33;;;;;;;3.42;70.57;102843.55;1720505;82;25701;-57
2021/03/02 05:03:01;;;;;;;14.25;5.85;;;;;;;3.36;70.65;102837.03;1718613;83;25669;-56
2021/03/02 05:05:30;;;;;;;14.55;7.90;;;;;;;3.29;70.87;102836.34;1718470;82;26087;-56
2021/03/02 05:07:58;;;;;;;8.65;5.60;;;;;;;3.25;71.02;102845.77;1718735;82;27548;-60
2021/03/02 05:10:26;;;;;;;18.10;9.33;;;;;;;3.20;71.17;102839.66;1741083;82;27508;-57
2021/03/02 05:12:55;;;;;;;16.62;7.92;;;;;;;3.11;71.48;102836.31;1724352;80;25735;-56
2021/03/02 05:15:25;;;;;;;22.60;9.28;;;;;;;3.08;71.67;102836.84;1725347;82;25648;-57
2021/03/02 05:17:53;;;;;;;12.50;7.78;;;;;;;3.04;71.74;102831.20;1720505;82;25743;-57
2021/03/02 05:20:23;;;;;;;15.15;8.50;;;;;;;3.05;72.08;102833.81;1724790;82;27604;-57
2021/03/02 05:22:51;;;;;;;17.15;9.15;;;;;;;3.09;72.12;102831.48;1739942;82;25672;-56
2021/03/02 05:25:19;;;;;;;14.05;8.45;;;;;;;3.15;72.30;102837.11;1730426;82;26126;-55
2021/03/02 05:27:47;;;;;;;18.32;9.45;;;;;;;3.17;72.15;102839.28;1727896;82;25791;-58
2021/03/02 05:30:17;;;;;;;18.02;10.15;;;;;;;3.21;72.31;102833.43;1727067;82;26072;-58
2021/03/02 05:32:46;;;;;;;15.50;9.20;;;;;;;3.23;72.05;102836.47;1714895;82;27540;-56
2021/03/02 05:35:14;;;;;;;22.05;8.73;;;;;;;3.19;71.66;102835.25;1710579;83;25711;-57
2021/03/02 05:37:42;;;;;;;18.37;8.23;;;;;;;3.21;71.95;102838.31;1723546;82;25731;-57
2021/03/02 05:40:13;;;;;;;17.15;9.25;;;;;;;3.22;72.05;102833.42;1722354;81;26097;-55
2021/03/02 05:42:41;;;;;;;21.15;9.70;;;;;;;3.23;72.12;102831.14;1721259;82;26186;-56
2021/03/02 05:45:11;;;;;;;23.25;11.40;;;;;;;3.28;71.91;102833.70;1716767;82;27537;-56
2021/03/02 05:47:40;;;;;;;24.43;13.25;;;;;;;3.33;71.66;102829.15;1721194;82;25791;-57
2021/03/02 05:50:11;;;;;;;20.08;11.28;;;;;;;3.39;71.63;102828.98;1727740;83;25679;-57
2021/03/02 05:52:40;;;;;;;24.52;11.70;;;;;;;3.49;71.38;102826.09;1705531;84;26417;-57
2021/03/02 05:55:10;;;;;;;22.98;10.93;;;;;;;3.51;71.53;102829.59;1725885;83;25726;-56
2021/03/02 05:57:39;;;;;;;21.48;10.50;;;;;;;3.53;71.27;102835.29;1705509;84;27555;-57
2021/03/02 06:00:09;;;;;;;29.30;16.60;;;;;;;3.47;70.86;102835.45;1728116;81;25716;-57
2021/03/02 06:02:37;;;;;;;20.27;12.50;;;;;;;3.39;71.00;102840.09;1732765;81;25734;-57
2021/03/02 06:05:07;;;;;;;18.35;11.03;;;;;;;3.34;71.05;102841.55;1775764;79;25762;-57
2021/03/02 06:07:36;;;;;;;20.20;11.43;;;;;;;3.33;71.08;102842.89;1768108;78;25660;-56
2021/03/02 06:10:06;;;;;;;19.75;10.78;;;;;;;3.31;70.99;102849.59;1781338;79;27532;-57
2021/03/02 06:12:55;;;;;;;23.55;11.83;;;;;;;3.30;71.00;102847.84;1793537;78;26014;-57
2021/03/02 06:15:27;;;;;;;30.35;12.00;;;;;;;3.29;71.09;102851.41;1791290;80;25647;-57
2021/03/02 06:18:13;;;;;;;21.77;11.30;;;;;;;3.31;71.14;102848.26;1776206;80;25712;-58
2021/03/02 06:20:43;;;;;;;26.80;12.75;;;;;;;3.32;71.26;102844.69;1792293;78;26090;-57
2021/03/02 06:23:30;;;;;;;28.23;13.43;;;;;;;3.39;71.67;102846.28;1793847;80;27709;-57
2021/03/02 06:26:13;;;;;;;20.20;13.15;;;;;;;3.45;71.53;102836.80;1792643;80;25407;-58
2021/03/02 06:28:45;;;;;;;20.57;12.53;;;;;;;3.47;70.93;102835.45;1790936;79;25707;-57
2021/03/02 06:31:40;;;;;;;19.42;11.63;;;;;;;3.48;70.87;102826.56;1774209;80;26498;-57
2021/03/02 06:34:19;;;;;;;23.52;12.95;;;;;;;3.52;70.71;102823.36;1776581;80;25722;-58
2021/03/02 06:36:58;;;;;;;25.75;13.20;;;;;;;3.54;70.46;102825.06;1777745;80;27685;-57
2021/03/02 06:39:42;;;;;;;21.90;11.75;;;;;;;3.65;70.52;102826.58;1782092;80;25686;-57
2021/03/02 06:42:21;;;;;;;22.65;13.18;;;;;;;3.68;68.90;102830.47;1762194;80;25491;-56
2021/03/02 06:44:56;;;;;;;21.12;12.20;;;;;;;3.65;68.78;102824.77;1762341;81;26463;-57
2021/03/02 06:47:40;;;;;;;18.10;12.03;;;;;;;3.65;68.73;102827.44;1761438;81;25728;-56
2021/03/02 06:50:18;;;;;;;22.48;13.22;;;;;;;3.61;68.30;102824.45;1763602;80;27521;-56
2021/03/02 06:52:46;;;;;;;19.77;11.48;;;;;;;3.60;68.53;102818.71;1764127;80;25704;-57
2021/03/02 06:55:22;;;;;;;23.75;13.65;;;;;;;3.59;68.26;102813.83;1775395;80;25609;-57
2021/03/02 06:57:51;;;;;;;25.77;13.93;;;;;;;3.61;68.43;102812.48;1775320;79;25636;-56
2021/03/02 07:00:33;;;;;;;23.62;13.40;;;;;;;3.66;68.61;102813.69;1777156;78;25702;-56
2021/03/02 07:03:02;;;;;;;22.93;14.18;;;;;;;3.66;68.50;102802.56;1785157;79;27537;-57
2021/03/02 07:05:49;;;;;;;;;;;;;;;;;;;;;
2021/03/02 07:08:20;;;;;;;23.60;13.13;;;;;;;3.83;68.49;102791.47;1832729;76;25578;-57
2021/03/02 07:14:01;;;;;;;21.97;14.20;;;;;;;3.93;67.01;102788.08;1783748;78;27873;-57
2021/03/02 07:16:41;;;;;;;24.45;13.03;;;;;;;4.00;66.81;102792.31;1769123;80;25719;-57
2021/03/02 07:19:16;;;;;;;25.72;14.60;;;;;;;4.01;66.33;102790.53;1759028;80;27603;-56
2021/03/02 07:25:24;;;;;;;25.85;13.53;;;;;;;4.05;66.10;102770.88;1830999;78;25577;-57
2021/03/02 07:28:02;;;;;;;28.32;15.23;;;;;;;4.01;65.81;102778.08;1730218;82;25652;-58
2021/03/02 07:30:31;;;;;;;28.57;16.73;;;;;;;4.07;65.97;102773.04;1724537;81;26872;-57
2021/03/02 07:33:02;;;;;;;28.55;15.50;;;;;;;4.09;65.97;102779.20;1727438;82;25656;-58
2021/03/02 07:35:31;;;;;;;31.25;14.03;;;;;;;4.15;66.19;102782.16;1740862;82;26763;-57
2021/03/02 07:38:21;;;;;;;24.65;13.50;;;;;;;4.20;65.47;102775.77;1758457;79;25513;-58
2021/03/02 07:40:53;;;;;;;25.50;13.38;;;;;;;4.28;65.79;102764.01;1718933;82;25671;-56
2021/03/02 07:43:34;;;;;;;23.25;12.70;;;;;;;4.35;65.58;102768.23;1713149;82;27533;-57
2021/03/02 07:46:24;;;;;;;20.80;12.95;;;;;;;4.42;65.51;102768.92;1752081;80;25670;-58
2021/03/02 07:48:53;;;;;;;27.10;13.05;;;;;;;4.54;65.68;102767.19;1711590;81;25755;-57
2021/03/02 07:51:23;;;;;;;25.75;11.40;;;;;;;4.72;65.17;102763.09;1752446;81;26126;-57
2021/03/02 07:53:53;;;;;;;18.98;10.43;;;;;;;4.88;64.93;102756.81;1720660;82;25679;-58
2021/03/02 07:56:23;;;;;;;19.65;12.05;;;;;;;4.98;63.28;102751.55;1699013;82;27732;-57
2021/03/02 07:59:15;;;;;;;21.20;11.85;;;;;;;4.96;61.97;102752.09;1753253;81;26082;-57
2021/03/02 08:01:44;;;;;;;20.60;12.03;;;;;;;4.97;62.75;102740.95;1736948;82;25841;-57
2021/03/02 08:04:26;;;;;;;26.77;13.78;;;;;;;5.04;62.52;102742.95;1724286;82;25708;-57
2021/03/02 08:07:00;;;;;;;29.45;13.35;;;;;;;5.12;62.91;102741.75;1740528;82;25947;-57
2021/03/02 08:09:31;;;;;;;27.80;11.85;;;;;;;5.21;62.09;102744.59;1749675;81;27731;-57
2021/03/02 08:12:30;;;;;;;19.92;10.35;;;;;;;5.31;61.64;102732.67;1715666;82;25788;-57
2021/03/02 08:15:15;;;;;;;21.62;10.35;;;;;;;5.38;61.09;102724.44;1737440;82;25887;-57
2021/03/02 08:17:46;;;;;;;16.42;9.50;;;;;;;5.53;61.17;102719.88;1753066;81;25648;-57
2021/03/02 08:20:15;;;;;;;23.27;10.18;;;;;;;5.58;59.69;102724.61;1717288;82;25923;-57
2021/03/02 08:41:36;;;;;;;20.82;10.75;;;;;;;6.16;59.63;102689.11;1756324;79;26110;-57
2021/03/02 08:44:05;;;;;;;21.75;10.78;;;;;;;6.34;58.57;102699.52;1734971;80;25734;-58
2021/03/02 08:46:36;;;;;;;25.60;10.48;;;;;;;6.37;55.79;102690.91;1678530;83;27545;-58
2021/03/02 08:49:13;;;;;;;18.50;10.60;;;;;;;6.50;56.02;102691.77;1717501;82;25745;-58
2021/03/02 08:51:41;;;;;;;20.50;9.90;;;;;;;6.60;54.57;102689.58;1690332;83;25521;-58
2021/03/02 08:54:09;;;;;;;21.40;11.05;;;;;;;6.73;54.40;102675.62;1661937;85;25778;-58
2021/03/02 08:56:37;;;;;;;19.87;9.10;;;;;;;6.91;55.41;102677.60;1730802;82;25720;-57
2021/03/02 08:59:14;;;;;;;19.42;10.23;;;;;;;7.08;53.61;102683.10;1740234;81;27543;-58
2021/03/02 09:01:43;;;;;;;20.65;9.58;;;;;;;7.16;53.42;102678.28;1715353;80;25725;-58
2021/03/02 09:04:19;;;;;;;25.00;11.33;;;;;;;7.32;52.84;102668.23;1679523;84;25845;-58
2021/03/02 09:06:50;;;;;;;18.15;10.23;;;;;;;7.47;52.75;102660.87;1700706;83;26146;-58
2021/03/02 09:09:24;;;;;;;21.42;11.33;;;;;;;7.65;52.33;102669.86;1688056;83;26073;-58
2021/03/02 09:11:58;;;;;;;17.40;10.82;;;;;;;7.88;53.47;102668.39;1694038;82;28463;-57
2021/03/02 09:14:37;;;;;;;31.73;11.83;;;;;;;8.15;52.98;102659.53;1700798;82;26255;-57
2021/03/02 09:17:07;;;;;;;31.85;11.85;;;;;;;8.48;52.86;102653.94;1704396;84;25734;-57
2021/03/02 09:19:41;;;;;;;26.10;10.80;;;;;;;8.77;50.36;102652.01;1683565;84;25852;-57
2021/03/02 09:22:15;;;;;;;31.80;11.93;;;;;;;9.03;48.93;102652.97;1676748;85;25737;-57
2021/03/02 09:24:48;;;;;;;17.65;9.95;;;;;;;9.19;49.43;102649.87;1678658;84;27506;-57
2021/03/02 09:27:19;;;;;;;23.80;11.28;;;;;;;9.43;49.35;102644.61;1703888;84;25716;-57
2021/03/02 09:29:52;;;;;;;22.15;11.90;;;;;;;9.95;48.40;102649.81;1705463;84;25523;-57
2021/03/02 09:32:29;;;;;;;21.62;12.05;;;;;;;10.43;44.72;102659.23;1715281;82;25470;-57
2021/03/02 09:35:07;;;;;;;19.98;11.73;;;;;;;11.14;44.53;102638.02;1705469;82;26372;-57
2021/03/02 09:37:37;;;;;;;21.85;12.35;;;;;;;11.93;43.39;102638.95;1680614;84;27540;-58
2021/03/02 09:40:11;;;;;;;27.55;12.95;;;;;;;12.54;40.55;102640.83;1702515;83;26079;-57
2021/03/02 09:42:42;;;;;;;21.93;12.65;;;;;;;13.05;40.45;102631.94;1679138;84;25791;-57
2021/03/02 09:45:18;;;;;;;25.43;13.95;;;;;;;13.31;38.02;102638.73;1695491;84;27590;-58
2021/03/02 09:47:51;;;;;;;23.77;13.78;;;;;;;13.78;37.45;102637.17;1657333;85;25671;-57
2021/03/02 09:50:21;;;;;;;21.33;13.20;;;;;;;14.05;36.80;102629.36;1679665;84;27560;-57
2021/03/02 09:52:52;;;;;;;24.50;12.03;;;;;;;14.31;36.97;102606.23;1707337;84;25724;-57
2021/03/02 09:55:31;;;;;;;18.82;11.85;;;;;;;14.71;36.69;102611.84;1719715;83;25724;-58
2021/03/02 09:58:18;;;;;;;17.20;10.23;;;;;;;15.38;36.59;102599.87;1675459;83;25802;-57
2021/03/02 10:00:58;;;;;;;18.65;10.75;;;;;;;15.80;34.72;102596.04;1689733;83;26103;-57
2021/03/02 10:03:28;;;;;;;25.48;9.78;;;;;;;16.36;34.53;102597.75;1661967;83;26926;-57
2021/03/02 10:06:02;;;;;;;21.50;10.63;;;;;;;17.16;34.92;102590.05;1678806;85;25653;-57
2021/03/02 10:08:40;;;;;;;18.73;10.03;;;;;;;17.55;31.38;102583.02;1683884;83;25728;-58
2021/03/02 10:11:16;;;;;;;15.75;10.63;;;;;;;17.85;29.57;102587.55;1658963;85;25708;-57
2021/03/02 10:13:59;;;;;;;20.17;9.10;;;;;;;17.32;29.46;102580.00;1670445;85;25796;-58
2021/03/02 10:16:31;;;;;;;19.62;8.58;;;;;;;17.62;29.66;102563.30;1695743;84;27553;-58
2021/03/02 10:19:20;;;;;;;13.22;9.40;;;;;;;17.72;28.30;102557.02;1694548;84;25685;-58
2021/03/02 10:21:56;;;;;;;17.32;9.40;;;;;;;17.86;29.32;102570.22;1693829;84;25714;-58
2021/03/02 10:24:31;;;;;;;14.33;7.70;;;;;;;18.02;30.88;102563.41;1681036;85;25644;-58
2021/03/02 10:27:02;;;;;;;15.40;8.03;;;;;;;18.02;28.05;102557.45;1706181;84;26089;-58
2021/03/02 10:29:31;;;;;;;13.13;8.90;;;;;;;17.94;27.30;102556.75;1669129;84;27573;-57
2021/03/02 10:32:00;;;;;;;16.97;8.43;;;;;;;17.87;27.14;102557.48;1653269;85;25835;-57
2021/03/02 10:34:33;;;;;;;17.25;8.80;;;;;;;17.82;28.02;102545.14;1651608;85;25668;-58
2021/03/02 10:36:59;;;;;;;16.35;7.78;;;;;;;17.59;27.11;102546.39;1651145;85;26194;-57
2021/03/02 10:39:28;;;;;;;16.20;9.33;;;;;;;17.71;27.75;102537.09;1659634;85;25699;-58
2021/03/02 10:41:58;;;;;;;18.17;9.58;;;;;;;18.12;27.22;102528.85;1673864;84;27549;-58
2021/03/02 10:44:27;;;;;;;17.75;9.18;;;;;;;18.43;28.04;102513.72;1652260;85;25810;-58
2021/03/02 10:46:55;;;;;;;12.65;8.48;;;;;;;18.38;26.70;102513.27;1680023;84;25623;-58
2021/03/02 10:49:24;;;;;;;12.55;8.38;;;;;;;18.67;26.41;102491.44;1679719;85;25749;-58
2021/03/02 10:51:54;;;;;;;11.43;8.28;;;;;;;18.80;26.12;102487.02;1696730;84;25687;-58
2021/03/02 10:54:22;;;;;;;13.20;8.45;;;;;;;18.64;25.38;102487.63;1699004;84;27539;-58
2021/03/02 10:56:50;;;;;;;14.28;8.48;;;;;;;18.40;26.12;102476.73;1678809;85;25659;-57
2021/03/02 10:59:18;;;;;;;18.82;8.40;;;;;;;18.57;26.08;102476.97;1684922;82;25723;-58
2021/03/02 11:01:48;;;;;;;10.00;7.67;;;;;;;18.99;26.86;102470.27;1697104;84;25747;-58
2021/03/02 11:04:20;;;;;;;15.80;8.48;;;;;;;19.35;25.45;102471.20;1687773;84;25764;-58
2021/03/02 11:06:48;;;;;;;9.38;6.90;;;;;;;19.48;24.99;102467.26;1679350;84;27542;-58
2021/03/02 11:09:17;;;;;;;12.50;7.92;;;;;;;19.95;26.09;102459.38;1681838;84;25760;-59
2021/03/02 11:11:45;;;;;;;20.25;10.55;;;;;;;19.74;24.14;102465.13;1687965;84;25762;-58
2021/03/02 11:14:14;;;;;;;23.52;9.45;;;;;;;19.62;24.72;102457.16;1686361;84;25700;-58
2021/03/02 11:16:42;;;;;;;13.40;8.45;;;;;;;19.94;25.48;102440.78;1674895;85;25662;-58
2021/03/02 11:19:11;;;;;;;20.17;8.50;;;;;;;20.48;25.03;102448.00;1682916;84;26963;-58
2021/03/02 11:21:39;;;;;;;11.60;7.78;;;;;;;20.87;24.49;102443.44;1666511;84;25832;-59
2021/03/02 11:24:08;;;;;;;14.20;8.85;;;;;;;20.59;24.04;102438.14;1661652;85;25768;-58
2021/03/02 11:26:36;;;;;;;12.75;7.30;;;;;;;20.44;24.31;102434.30;1678686;84;25722;-58
2021/03/02 11:29:05;;;;;;;11.63;7.30;;;;;;;20.15;23.44;102428.14;1682704;84;25861;-58
2021/03/02 11:31:34;;;;;;;14.60;8.05;;;;;;;19.64;23.98;102445.59;1674078;84;27544;-58
2021/03/02 11:34:03;;;;;;;11.33;7.28;;;;;;;19.34;24.98;102429.91;1678688;85;26092;-58
2021/03/02 11:36:32;;;;;;;13.72;7.47;;;;;;;19.44;24.79;102434.45;1696912;84;25764;-58
2021/03/02 11:39:00;;;;;;;13.22;7.03;;;;;;;19.00;25.46;102428.34;1698069;83;25757;-58
2021/03/02 11:41:28;;;;;;;12.88;7.60;;;;;;;18.83;25.91;102409.00;1699075;83;26328;-58
2021/03/02 11:43:57;;;;;;;15.95;8.38;;;;;;;19.03;26.35;102404.84;1678921;83;27620;-58
2021/03/02 11:46:25;;;;;;;10.23;6.60;;;;;;;19.07;25.49;102400.29;1712786;82;25926;-58
2021/03/02 11:48:54;;;;;;;12.43;6.95;;;;;;;19.32;27.03;102396.46;1706142;84;25674;-59
2021/03/02 11:51:22;;;;;;;15.50;7.35;;;;;;;19.37;26.73;102390.05;1709176;82;25685;-58
2021/03/02 11:53:50;;;;;;;14.80;7.08;;;;;;;19.53;27.05;102388.48;1714173;82;25767;-58
2021/03/02 11:56:19;;;;;;;11.68;6.78;;;;;;;18.95;26.02;102383.80;1734442;82;27601;-58
2021/03/02 11:58:46;;;;;;;14.18;7.50;;;;;;;18.32;26.11;102396.23;1735401;82;25710;-58
2021/03/02 12:01:15;;;;;;;15.85;8.23;;;;;;;17.86;27.31;102382.89;1733485;82;25754;-58
2021/03/02 12:03:43;;;;;;;10.72;7.58;;;;;;;17.83;27.96;102374.52;1706127;84;25654;-58
2021/03/02 12:06:12;;;;;;;14.80;7.33;;;;;;;17.76;27.83;102374.23;1714303;82;25681;-58
2021/03/02 12:08:40;;;;;;;11.00;6.78;;;;;;;17.63;28.27;102362.77;1722287;82;27540;-58
2021/03/02 12:11:09;;;;;;;15.40;6.12;;;;;;;17.83;28.67;102352.22;1715071;82;25775;-58